Time;durP1;ratioP1;P1;durP2;ratioP2;P2;SDS_P1;SDS_P2;PMS_P1;PMS_P2;Temp;Humidity;BMP_temperature;BMP_pressure;BME280_temperature;BME280_humidity;BME280_pressure;Samples;Min_cycle;Max_cycle;Signal;HPM_P1;HPM_P2
2023/03/01 00:02:23;;;;;;;9.95;7.35;;;-1.30;99.90;;;;;;5053826;28;20202;-65
2023/03/01 00:04:50;;;;;;;9.50;7.82;;;-1.30;99.90;;;;;;5053116;28;20200;-64
2023/03/01 00:07:17;;;;;;;10.50;7.95;;;-1.30;99.90;;;;;;5053662;28;20212;-67
2023/03/01 00:09:45;;;;;;;7.93;6.50;;;-1.30;99.90;;;;;;5053660;28;20660;-64
2023/03/01 00:12:12;;;;;;;8.32;6.05;;;-1.30;99.90;;;;;;5053707;28;20216;-64
2023/03/01 00:14:39;;;;;;;6.97;5.75;;;-1.30;99.90;;;;;;5053843;28;20202;-63
2023/03/01 00:17:06;;;;;;;9.68;7.60;;;-1.30;99.90;;;;;;5053162;28;20229;-62
2023/03/01 00:19:34;;;;;;;10.75;7.88;;;-1.40;99.90;;;;;;5053242;28;20629;-61
2023/03/01 00:22:01;;;;;;;9.40;6.97;;;-1.40;99.90;;;;;;5053131;28;20212;-63
2023/03/01 00:24:27;;;;;;;9.27;6.93;;;-1.40;99.90;;;;;;5052937;28;20201;-62
2023/03/01 00:26:56;;;;;;;7.90;6.38;;;-1.40;99.90;;;;;;5056216;28;20202;-62
2023/03/01 00:29:23;;;;;;;13.07;7.60;;;-1.40;99.90;;;;;;5058635;28;20287;-63
2023/03/01 00:31:50;;;;;;;8.43;6.82;;;-1.40;99.90;;;;;;5057292;28;20198;-61
2023/03/01 00:34:17;;;;;;;10.90;6.93;;;-1.40;99.90;;;;;;5057552;28;20236;-62
2023/03/01 00:36:45;;;;;;;7.75;6.43;;;-1.50;99.90;;;;;;5057356;28;20232;-63
2023/03/01 00:39:13;;;;;;;11.70;6.57;;;-1.50;99.90;;;;;;5056964;28;20596;-62
2023/03/01 00:41:40;;;;;;;8.43;7.20;;;-1.50;99.90;;;;;;5057555;28;20583;-62
2023/03/01 00:44:07;;;;;;;7.57;6.80;;;-1.50;99.90;;;;;;5057203;28;20256;-63
2023/03/01 00:46:34;;;;;;;9.07;7.15;;;-1.60;99.90;;;;;;5057202;28;20194;-62
2023/03/01 00:49:02;;;;;;;9.18;7.53;;;-1.60;99.90;;;;;;5057180;28;20217;-62
2023/03/01 00:51:30;;;;;;;10.43;6.85;;;-1.60;99.90;;;;;;5056785;28;20205;-62
2023/03/01 00:54:00;;;;;;;9.48;6.38;;;-1.60;99.90;;;;;;5056536;28;20744;-65
2023/03/01 00:56:27;;;;;;;11.00;6.45;;;-1.60;99.90;;;;;;5056809;28;20217;-63
2023/03/01 00:58:54;;;;;;;11.77;7.10;;;-1.60;99.90;;;;;;5057307;28;20230;-62
2023/03/01 01:01:23;;;;;;;11.85;7.40;;;-1.60;99.90;;;;;;5056630;28;20317;-62
2023/03/01 01:03:52;;;;;;;9.35;7.60;;;-1.60;99.90;;;;;;5056931;28;20205;-62
2023/03/01 01:06:21;;;;;;;8.48;6.82;;;-1.60;99.90;;;;;;5056500;28;20221;-62
2023/03/01 01:08:49;;;;;;;8.63;7.68;;;-1.60;99.90;;;;;;5056319;28;20571;-61
2023/03/01 01:11:17;;;;;;;10.02;7.93;;;-1.60;99.90;;;;;;5056453;28;20186;-62
2023/03/01 01:13:45;;;;;;;8.00;6.70;;;-1.70;99.90;;;;;;5056534;28;20202;-63
2023/03/01 01:16:12;;;;;;;10.90;7.10;;;-1.70;99.90;;;;;;5056954;28;20222;-63
2023/03/01 01:18:39;;;;;;;10.35;7.93;;;-1.70;99.90;;;;;;5056455;28;20202;-64
2023/03/01 01:21:07;;;;;;;7.70;6.90;;;-1.70;99.90;;;;;;5056341;28;20663;-63
2023/03/01 01:23:34;;;;;;;10.63;7.70;;;-1.70;99.90;;;;;;5056444;28;20201;-63
2023/03/01 01:26:05;;;;;;;8.15;6.90;;;-1.80;99.90;;;;;;5056024;28;20205;-63
2023/03/01 01:28:33;;;;;;;10.15;9.15;;;-1.80;99.90;;;;;;5055786;28;20181;-63
2023/03/01 01:31:00;;;;;;;11.02;7.63;;;-1.80;99.90;;;;;;5056130;28;20293;-61
2023/03/01 01:33:28;;;;;;;14.82;8.10;;;-1.80;99.90;;;;;;5055976;28;20205;-62
2023/03/01 01:35:55;;;;;;;9.40;7.30;;;-1.90;99.90;;;;;;5056180;28;20224;-61
2023/03/01 01:38:22;;;;;;;7.70;6.70;;;-1.90;99.90;;;;;;5054839;28;20229;-61
2023/03/01 01:40:50;;;;;;;8.40;6.43;;;-1.90;99.90;;;;;;5055498;28;20208;-62
2023/03/01 01:43:24;;;;;;;8.70;7.07;;;-2.00;99.90;;;;;;5055572;28;20213;-63
2023/03/01 01:45:53;;;;;;;12.45;8.45;;;-2.00;99.90;;;;;;5055675;28;20190;-62
2023/03/01 01:48:22;;;;;;;12.30;8.07;;;-2.00;99.90;;;;;;5055684;28;20578;-62
2023/03/01 01:50:56;;;;;;;10.40;6.80;;;-2.10;99.90;;;;;;5055131;28;20303;-63
2023/03/01 01:53:23;;;;;;;8.43;7.20;;;-2.10;99.90;;;;;;5056016;28;20186;-62
2023/03/01 01:55:54;;;;;;;9.07;6.60;;;-2.10;99.90;;;;;;5055877;28;20202;-63
2023/03/01 01:58:22;;;;;;;9.55;7.20;;;-2.10;99.90;;;;;;5055780;28;20190;-63
2023/03/01 02:00:50;;;;;;;9.75;6.85;;;-2.10;99.90;;;;;;5055607;28;20209;-63
2023/03/01 02:03:28;;;;;;;10.20;6.60;;;-2.10;99.90;;;;;;5055789;28;20300;-63
2023/03/01 02:06:02;;;;;;;15.43;8.98;;;-2.10;99.90;;;;;;5055277;28;20186;-62
2023/03/01 02:08:33;;;;;;;9.27;7.22;;;-2.10;99.90;;;;;;5055370;28;20553;-62
2023/03/01 02:11:03;;;;;;;12.50;6.90;;;-2.10;99.90;;;;;;5056027;28;20182;-61
2023/03/01 02:13:31;;;;;;;9.60;7.03;;;-2.10;99.90;;;;;;5055787;28;20190;-62
2023/03/01 02:15:58;;;;;;;8.32;6.80;;;-2.10;99.90;;;;;;5055395;28;20206;-63
2023/03/01 02:18:26;;;;;;;9.20;6.30;;;-2.10;99.90;;;;;;5055318;28;20208;-62
2023/03/01 02:21:09;;;;;;;9.07;7.05;;;-2.10;99.90;;;;;;5055139;28;20201;-63
2023/03/01 02:23:37;;;;;;;8.15;6.80;;;-2.10;99.90;;;;;;5054977;28;20186;-62
2023/03/01 02:26:11;;;;;;;17.67;7.25;;;-2.10;99.90;;;;;;5055189;28;20198;-62
2023/03/01 02:28:41;;;;;;;9.10;6.45;;;-2.10;99.90;;;;;;5054939;28;20194;-62
2023/03/01 02:33:54;;;;;;;9.27;6.97;;;-2.20;99.90;;;;;;5055104;28;20181;-63
2023/03/01 02:36:25;;;;;;;10.15;6.72;;;-2.10;99.90;;;;;;5055077;28;20217;-62
2023/03/01 02:38:56;;;;;;;13.77;7.57;;;-2.20;99.90;;;;;;5054969;28;20249;-62
2023/03/01 02:41:25;;;;;;;11.00;6.88;;;-2.20;99.90;;;;;;5054911;28;20182;-62
2023/03/01 02:43:53;;;;;;;9.70;6.75;;;-2.20;99.90;;;;;;5054693;28;20319;-62
2023/03/01 02:46:22;;;;;;;10.70;8.32;;;-2.20;99.90;;;;;;5054872;28;20197;-62
2023/03/01 02:48:51;;;;;;;9.45;7.43;;;-2.20;99.90;;;;;;5054529;28;20221;-63
2023/03/01 02:51:43;;;;;;;9.68;7.97;;;-2.20;99.90;;;;;;5053490;28;20210;-61
2023/03/01 02:54:20;;;;;;;8.32;6.35;;;-2.20;99.90;;;;;;5054538;28;20186;-62
2023/03/01 02:56:49;;;;;;;10.07;7.32;;;-2.20;99.90;;;;;;5054420;28;20216;-62
2023/03/01 02:59:19;;;;;;;7.57;6.45;;;-2.30;99.90;;;;;;5054436;28;20222;-62
2023/03/01 03:01:46;;;;;;;6.88;6.20;;;-2.30;99.90;;;;;;5054621;28;20189;-63
2023/03/01 03:04:16;;;;;;;7.68;6.22;;;-2.30;99.90;;;;;;5053821;28;20690;-63
2023/03/01 03:06:44;;;;;;;8.60;6.97;;;-2.30;99.90;;;;;;5055001;28;20186;-63
2023/03/01 03:09:10;;;;;;;10.48;6.95;;;-2.30;99.90;;;;;;5053654;28;20610;-63
2023/03/01 03:11:39;;;;;;;12.05;6.88;;;-2.30;99.90;;;;;;5054195;28;20201;-63
2023/03/01 03:14:05;;;;;;;9.65;7.25;;;-2.30;99.90;;;;;;5054117;28;20259;-63
2023/03/01 03:16:33;;;;;;;8.23;6.43;;;-2.30;99.90;;;;;;5055179;28;20222;-63
2023/03/01 03:19:04;;;;;;;8.68;6.65;;;-2.30;99.90;;;;;;5053810;28;20297;-63
2023/03/01 03:21:31;;;;;;;12.55;7.30;;;-2.30;99.90;;;;;;5054134;28;20186;-62
2023/03/01 03:23:58;;;;;;;9.98;6.70;;;-2.30;99.90;;;;;;5054014;28;20556;-63
2023/03/01 03:26:25;;;;;;;11.20;7.13;;;-2.40;99.90;;;;;;5054076;28;20217;-63
2023/03/01 03:28:52;;;;;;;9.57;7.13;;;-2.40;99.90;;;;;;5053458;28;20218;-62
2023/03/01 03:31:18;;;;;;;8.20;6.47;;;-2.40;99.90;;;;;;5053751;28;20202;-64
2023/03/01 03:33:47;;;;;;;8.88;7.00;;;-2.40;99.90;;;;;;5054317;28;20201;-63
2023/03/01 03:36:17;;;;;;;8.32;7.05;;;-2.40;99.90;;;;;;5053686;28;20208;-63
2023/03/01 03:38:44;;;;;;;11.45;6.10;;;-2.40;99.90;;;;;;5053739;28;20320;-63
2023/03/01 03:41:11;;;;;;;10.52;6.65;;;-2.50;99.90;;;;;;5053762;28;20202;-63
2023/03/01 03:43:39;;;;;;;9.48;6.65;;;-2.50;99.90;;;;;;5053639;28;20205;-64
2023/03/01 03:46:07;;;;;;;9.30;6.82;;;-2.50;99.90;;;;;;5053334;28;20202;-64
2023/03/01 03:48:34;;;;;;;9.50;7.53;;;-2.50;99.90;;;;;;5053302;28;20198;-63
2023/03/01 03:51:05;;;;;;;14.68;7.32;;;-2.50;99.90;;;;;;5053774;28;20208;-62
2023/03/01 03:53:32;;;;;;;9.60;6.55;;;-2.50;99.90;;;;;;5054228;28;20256;-63
2023/03/01 03:55:59;;;;;;;12.65;7.78;;;-2.60;99.90;;;;;;5053466;28;20214;-63
2023/03/01 03:58:26;;;;;;;7.95;6.75;;;-2.60;99.90;;;;;;5053253;28;20221;-63
2023/03/01 04:00:56;;;;;;;8.45;6.03;;;-2.60;99.90;;;;;;5052929;28;20223;-63
2023/03/01 04:03:24;;;;;;;10.45;6.80;;;-2.60;99.90;;;;;;5053628;28;20267;-62
2023/03/01 04:05:51;;;;;;;7.45;6.72;;;-2.60;99.90;;;;;;5053073;28;20202;-63
2023/03/01 04:11:29;;;;;;;14.10;7.90;;;-2.70;99.90;;;;;;5111523;27;1249780;-62
2023/03/01 04:13:58;;;;;;;8.40;6.88;;;-2.70;99.90;;;;;;5131786;28;20183;-62
2023/03/01 04:16:25;;;;;;;9.60;7.60;;;-2.70;99.90;;;;;;5131304;28;20572;-64
2023/03/01 04:18:53;;;;;;;15.48;7.47;;;-2.70;99.90;;;;;;5127221;28;20222;-63
2023/03/01 04:21:20;;;;;;;10.65;6.78;;;-2.70;99.90;;;;;;5110904;28;20290;-63
2023/03/01 04:23:47;;;;;;;14.40;8.52;;;-2.70;99.90;;;;;;5110728;28;20211;-62
2023/03/01 04:26:13;;;;;;;9.95;7.65;;;-2.70;99.90;;;;;;5110671;28;20200;-62
2023/03/01 04:28:44;;;;;;;9.55;7.57;;;-2.70;99.90;;;;;;5110541;28;20207;-64
2023/03/01 04:31:15;;;;;;;10.40;7.25;;;-2.70;99.90;;;;;;5110423;28;20692;-64
2023/03/01 04:33:43;;;;;;;11.90;7.88;;;-2.70;99.90;;;;;;5110712;28;20199;-62
2023/03/01 04:36:11;;;;;;;9.95;7.97;;;-2.70;99.90;;;;;;5110858;28;20208;-62
2023/03/01 04:38:38;;;;;;;8.30;7.50;;;-2.80;99.90;;;;;;5110630;28;20204;-62
2023/03/01 04:41:06;;;;;;;9.60;7.10;;;-2.80;99.90;;;;;;5110540;28;20195;-62
2023/03/01 04:43:33;;;;;;;11.98;7.63;;;-2.80;99.90;;;;;;5110641;28;20207;-63
2023/03/01 04:46:08;;;;;;;9.13;7.85;;;-2.80;99.90;;;;;;5110512;28;20196;-62
2023/03/01 04:48:36;;;;;;;11.07;7.38;;;-2.80;99.90;;;;;;5110770;28;20236;-62
2023/03/01 04:51:03;;;;;;;10.90;7.53;;;-2.80;99.90;;;;;;5110536;28;20252;-62
2023/03/01 04:53:30;;;;;;;12.63;7.53;;;-2.80;99.90;;;;;;5110113;28;20696;-62
2023/03/01 04:55:57;;;;;;;13.80;7.53;;;-2.80;99.90;;;;;;5110144;28;20576;-62
2023/03/01 04:58:24;;;;;;;12.00;8.05;;;-2.80;99.90;;;;;;5109878;28;20211;-62
2023/03/01 05:00:51;;;;;;;15.15;8.38;;;-2.80;99.90;;;;;;5109751;28;20200;-64
2023/03/01 05:03:19;;;;;;;13.23;8.18;;;-2.80;99.90;;;;;;5110566;28;20211;-63
2023/03/01 05:05:48;;;;;;;8.70;7.07;;;-2.80;99.90;;;;;;5110054;28;20200;-64
2023/03/01 05:08:18;;;;;;;10.35;7.22;;;-2.80;99.90;;;;;;5110030;28;20204;-63
2023/03/01 05:10:46;;;;;;;11.82;7.97;;;-2.90;99.90;;;;;;5109543;28;20689;-63
2023/03/01 05:13:20;;;;;;;12.30;7.32;;;-2.80;99.90;;;;;;5109750;28;20669;-62
2023/03/01 05:15:48;;;;;;;9.70;7.05;;;-2.80;99.90;;;;;;5110031;28;20275;-62
2023/03/01 05:18:15;;;;;;;11.13;7.22;;;-2.90;99.90;;;;;;5109994;28;20669;-63
2023/03/01 05:20:44;;;;;;;9.98;6.78;;;-2.90;99.90;;;;;;5106659;28;20635;-63
2023/03/01 05:23:11;;;;;;;7.80;5.57;;;-2.90;99.90;;;;;;5096198;28;20228;-62
2023/03/01 05:25:39;;;;;;;11.57;7.22;;;-3.00;99.90;;;;;;5096323;28;20208;-64
2023/03/01 05:28:09;;;;;;;11.38;7.70;;;-3.00;99.90;;;;;;5096824;28;20232;-62
2023/03/01 05:30:38;;;;;;;12.98;8.25;;;-3.00;99.90;;;;;;5096494;28;20216;-63
2023/03/01 05:33:10;;;;;;;12.02;7.60;;;-3.00;99.90;;;;;;5096165;28;20215;-62
2023/03/01 05:35:37;;;;;;;10.48;7.32;;;-3.00;99.90;;;;;;5096214;28;20185;-64
2023/03/01 05:38:05;;;;;;;10.68;7.57;;;-3.00;99.90;;;;;;5096724;28;20207;-62
2023/03/01 05:40:34;;;;;;;11.80;8.48;;;-3.00;99.90;;;;;;5096737;28;20223;-64
2023/03/01 05:43:01;;;;;;;9.10;7.60;;;-3.00;99.90;;;;;;5096236;28;20206;-63
2023/03/01 05:45:28;;;;;;;12.30;8.45;;;-3.00;99.90;;;;;;5093501;28;20208;-63
2023/03/01 05:47:55;;;;;;;14.90;8.88;;;-3.00;99.90;;;;;;5095749;28;20204;-62
2023/03/01 05:50:25;;;;;;;9.43;7.38;;;-3.10;99.90;;;;;;5095552;28;20561;-63
2023/03/01 05:52:58;;;;;;;15.55;8.38;;;-3.10;99.90;;;;;;5095023;28;20201;-63
2023/03/01 05:55:27;;;;;;;11.48;8.60;;;-3.10;99.90;;;;;;5095794;28;20180;-62
2023/03/01 05:57:54;;;;;;;10.43;7.30;;;-3.00;99.90;;;;;;5095045;28;20215;-63
2023/03/01 06:00:22;;;;;;;11.60;7.85;;;-3.00;99.90;;;;;;5096013;28;20219;-62
2023/03/01 06:02:50;;;;;;;9.80;8.10;;;-3.00;99.90;;;;;;5091113;28;20222;-64
2023/03/01 06:05:16;;;;;;;11.40;9.45;;;-3.00;99.90;;;;;;5085933;28;20205;-62
2023/03/01 06:07:43;;;;;;;15.45;10.30;;;-3.00;99.90;;;;;;5092612;28;20201;-61
2023/03/01 06:10:12;;;;;;;11.27;8.73;;;-3.10;99.90;;;;;;5089102;28;20694;-64
2023/03/01 06:12:43;;;;;;;10.73;7.90;;;-3.00;99.90;;;;;;5095212;28;20206;-63
2023/03/01 06:15:11;;;;;;;11.93;8.48;;;-3.10;99.90;;;;;;5093517;28;20267;-63
2023/03/01 06:17:40;;;;;;;11.27;8.23;;;-3.10;99.90;;;;;;5096183;28;20299;-61
2023/03/01 06:20:10;;;;;;;11.88;9.10;;;-3.00;99.90;;;;;;5091643;28;20225;-64
2023/03/01 06:22:37;;;;;;;12.70;9.13;;;-3.00;99.90;;;;;;5091892;28;20735;-62
2023/03/01 06:25:05;;;;;;;10.43;8.38;;;-2.90;99.90;;;;;;5094370;28;20200;-62
2023/03/01 06:27:31;;;;;;;9.20;8.05;;;-2.80;99.90;;;;;;5092945;28;20203;-63
2023/03/01 06:29:59;;;;;;;13.30;9.05;;;-2.80;99.90;;;;;;5093904;28;20311;-64
2023/03/01 06:32:26;;;;;;;11.15;8.48;;;-2.70;99.90;;;;;;5093284;28;20204;-63
2023/03/01 06:34:53;;;;;;;13.85;9.23;;;-2.70;99.90;;;;;;5093746;28;20204;-64
2023/03/01 06:37:20;;;;;;;14.73;10.25;;;-2.70;99.90;;;;;;5090646;28;20204;-61
2023/03/01 06:39:46;;;;;;;13.18;8.80;;;-2.70;99.90;;;;;;5094719;28;20224;-63
2023/03/01 06:42:13;;;;;;;13.70;9.88;;;-2.70;99.90;;;;;;5093737;28;20645;-63
2023/03/01 06:44:40;;;;;;;14.23;9.15;;;-2.60;99.90;;;;;;5094741;28;20235;-63
2023/03/01 06:47:08;;;;;;;14.60;10.15;;;-2.60;99.90;;;;;;5093897;28;20306;-62
2023/03/01 06:49:35;;;;;;;10.10;7.78;;;-2.60;99.90;;;;;;5094184;28;20228;-63
2023/03/01 06:52:02;;;;;;;12.05;9.00;;;-2.50;99.90;;;;;;5092279;28;20212;-63
2023/03/01 06:54:29;;;;;;;10.07;8.23;;;-2.50;99.90;;;;;;5091843;28;20299;-64
2023/03/01 06:56:56;;;;;;;11.20;8.90;;;-2.50;99.90;;;;;;5087450;28;20284;-61
2023/03/01 06:59:23;;;;;;;9.60;8.70;;;-2.40;99.90;;;;;;5094210;28;20224;-63
2023/03/01 07:01:49;;;;;;;12.18;8.85;;;-2.30;99.90;;;;;;5093223;28;20204;-63
2023/03/01 07:04:17;;;;;;;11.15;8.60;;;-2.30;99.90;;;;;;5090216;28;20200;-63
2023/03/01 07:06:44;;;;;;;14.95;8.70;;;-2.20;99.90;;;;;;5092010;28;20696;-62
2023/03/01 07:09:11;;;;;;;12.40;8.60;;;-2.10;99.90;;;;;;5092676;28;20224;-63
2023/03/01 07:11:38;;;;;;;12.30;9.38;;;-2.00;99.90;;;;;;5093620;28;20228;-62
2023/03/01 07:14:05;;;;;;;13.27;9.80;;;-1.90;99.90;;;;;;5093583;28;20204;-64
2023/03/01 07:16:32;;;;;;;13.73;8.82;;;-1.80;99.90;;;;;;5093423;28;20666;-64
2023/03/01 07:18:59;;;;;;;14.85;9.82;;;-1.60;99.90;;;;;;5092498;28;20231;-66
2023/03/01 07:21:27;;;;;;;12.00;8.98;;;-1.50;99.90;;;;;;5095106;28;20551;-62
2023/03/01 07:23:54;;;;;;;11.55;7.68;;;-1.30;99.90;;;;;;5094331;28;20280;-62
2023/03/01 07:26:21;;;;;;;17.55;7.95;;;-1.20;99.90;;;;;;5094129;28;20583;-63
2023/03/01 07:28:47;;;;;;;11.23;9.43;;;-1.00;99.90;;;;;;5093858;28;20218;-65
2023/03/01 07:31:14;;;;;;;12.45;8.90;;;-0.80;99.90;;;;;;5094135;28;20707;-64
2023/03/01 07:33:41;;;;;;;9.50;8.50;;;-0.60;99.90;;;;;;5094795;28;20570;-65
2023/03/01 07:36:08;;;;;;;12.52;9.48;;;-0.50;99.90;;;;;;5093205;28;20207;-64
2023/03/01 07:38:36;;;;;;;10.50;7.80;;;-0.30;99.90;;;;;;5092917;28;20301;-64
2023/03/01 07:41:05;;;;;;;13.57;8.95;;;-0.20;99.90;;;;;;5077263;28;20616;-65
2023/03/01 07:43:32;;;;;;;10.45;8.18;;;-0.10;99.90;;;;;;5073920;28;20212;-65
2023/03/01 07:46:00;;;;;;;9.45;7.65;;;0.00;99.90;;;;;;5073119;28;20201;-64
2023/03/01 07:48:27;;;;;;;9.35;7.22;;;0.10;99.90;;;;;;5073556;28;20209;-65
2023/03/01 07:50:53;;;;;;;11.65;8.43;;;0.30;99.90;;;;;;5073825;28;20221;-66
2023/03/01 07:53:20;;;;;;;9.50;7.75;;;0.40;99.90;;;;;;5073570;28;20205;-65
2023/03/01 07:55:48;;;;;;;9.75;7.20;;;0.50;99.90;;;;;;5073552;28;20203;-65
2023/03/01 07:58:15;;;;;;;9.75;7.75;;;0.60;99.90;;;;;;5073726;28;20260;-65
2023/03/01 08:00:42;;;;;;;17.42;9.57;;;0.70;99.90;;;;;;5073253;28;20584;-65
2023/03/01 08:03:09;;;;;;;12.70;8.40;;;0.70;99.90;;;;;;5073747;28;20200;-64
2023/03/01 08:05:35;;;;;;;11.98;8.20;;;0.80;99.90;;;;;;5073810;28;20300;-65
2023/03/01 08:08:02;;;;;;;9.88;7.22;;;0.70;99.90;;;;;;5073085;28;20197;-65
2023/03/01 08:10:29;;;;;;;12.93;8.60;;;0.70;99.90;;;;;;5072574;28;20225;-65
2023/03/01 08:12:57;;;;;;;13.32;9.45;;;0.60;99.90;;;;;;5072996;28;20197;-64
2023/03/01 08:15:23;;;;;;;10.30;8.90;;;0.60;99.90;;;;;;5073342;28;20673;-64
2023/03/01 08:17:51;;;;;;;10.00;8.57;;;0.60;99.90;;;;;;5072204;28;20212;-65
2023/03/01 08:20:17;;;;;;;11.32;7.82;;;0.60;99.90;;;;;;5072228;28;20221;-65
2023/03/01 08:22:44;;;;;;;10.25;8.20;;;0.70;99.90;;;;;;5072453;28;20200;-64
2023/03/01 08:25:11;;;;;;;7.78;6.93;;;0.80;99.90;;;;;;5072892;28;20209;-66
2023/03/01 08:27:38;;;;;;;14.63;6.68;;;0.80;99.90;;;;;;5073013;28;20674;-64
2023/03/01 08:30:08;;;;;;;10.23;7.47;;;0.90;99.90;;;;;;5072889;28;20225;-65
2023/03/01 08:32:37;;;;;;;12.32;8.30;;;0.90;99.90;;;;;;5072683;28;20201;-64
2023/03/01 08:35:05;;;;;;;10.02;7.43;;;0.90;99.90;;;;;;5072637;28;20282;-64
2023/03/01 08:37:32;;;;;;;9.48;7.93;;;1.10;99.90;;;;;;5072048;28;20696;-64
2023/03/01 08:39:59;;;;;;;9.38;6.88;;;1.30;99.90;;;;;;5071786;28;20571;-65
2023/03/01 08:42:26;;;;;;;10.68;7.93;;;1.40;99.90;;;;;;5072408;28;20217;-64
2023/03/01 08:44:53;;;;;;;10.70;6.60;;;1.60;99.90;;;;;;5072389;28;20201;-64
2023/03/01 08:47:21;;;;;;;12.15;8.38;;;1.70;99.90;;;;;;5072656;28;20208;-64
2023/03/01 08:49:49;;;;;;;8.88;6.47;;;1.80;99.40;;;;;;5072870;28;20307;-64
2023/03/01 08:52:16;;;;;;;11.15;6.90;;;1.90;98.80;;;;;;5072610;28;20247;-64
2023/03/01 08:54:43;;;;;;;8.30;6.57;;;2.00;98.20;;;;;;5072397;28;20197;-64
2023/03/01 08:57:09;;;;;;;14.95;7.38;;;2.10;97.70;;;;;;5074721;28;20201;-64
2023/03/01 08:59:37;;;;;;;12.57;7.38;;;2.20;97.40;;;;;;5076325;28;20231;-64
2023/03/01 09:02:04;;;;;;;8.98;6.93;;;2.30;97.00;;;;;;5076435;28;20292;-64
2023/03/01 09:04:33;;;;;;;13.52;7.20;;;2.30;96.60;;;;;;5076498;28;20233;-64
2023/03/01 09:07:00;;;;;;;11.57;6.00;;;2.50;96.30;;;;;;5077045;28;20227;-65
2023/03/01 09:09:26;;;;;;;14.07;7.15;;;2.60;95.70;;;;;;5076654;28;20572;-64
2023/03/01 09:11:53;;;;;;;14.27;6.82;;;2.60;95.10;;;;;;5076534;28;20209;-64
2023/03/01 09:14:20;;;;;;;12.65;5.85;;;2.70;94.90;;;;;;5076900;28;20201;-65
2023/03/01 09:16:47;;;;;;;9.55;5.90;;;2.80;94.30;;;;;;5076840;28;20205;-65
2023/03/01 09:19:15;;;;;;;10.27;5.43;;;2.90;93.80;;;;;;5075943;28;20231;-64
2023/03/01 09:21:51;;;;;;;13.77;5.38;;;3.00;93.20;;;;;;5076803;28;20197;-64
2023/03/01 09:24:21;;;;;;;8.35;5.63;;;3.10;92.50;;;;;;5077543;28;20606;-64
2023/03/01 09:26:48;;;;;;;10.90;5.45;;;3.20;91.40;;;;;;5077008;28;20197;-66
2023/03/01 09:29:15;;;;;;;6.30;5.18;;;3.20;90.70;;;;;;5076993;28;20275;-65
2023/03/01 09:31:43;;;;;;;8.32;4.68;;;3.20;90.20;;;;;;5076813;28;20598;-65
2023/03/01 09:34:10;;;;;;;8.30;5.30;;;3.20;88.90;;;;;;5076811;28;20197;-64
2023/03/01 09:36:37;;;;;;;18.27;5.93;;;3.20;87.10;;;;;;5076652;28;20205;-65
2023/03/01 09:39:06;;;;;;;9.70;5.55;;;3.20;86.10;;;;;;5076211;28;20599;-63
2023/03/01 09:41:47;;;;;;;4.53;3.83;;;3.30;85.00;;;;;;5076492;28;20259;-62
2023/03/01 09:44:23;;;;;;;4.97;4.22;;;3.40;84.10;;;;;;5077238;28;20268;-64
2023/03/01 09:46:51;;;;;;;9.80;5.20;;;3.50;83.40;;;;;;5076848;28;20207;-65
2023/03/01 09:49:23;;;;;;;9.75;5.05;;;3.60;82.00;;;;;;5077162;28;20714;-65
2023/03/01 09:51:58;;;;;;;9.00;5.43;;;3.70;80.20;;;;;;5077714;28;20619;-64
2023/03/01 09:54:27;;;;;;;11.80;6.18;;;3.90;78.70;;;;;;5078160;28;20666;-65
2023/03/01 09:57:05;;;;;;;9.80;5.38;;;3.90;76.40;;;;;;5078258;28;20205;-67
2023/03/01 09:59:41;;;;;;;8.57;5.90;;;3.90;74.80;;;;;;5077863;28;20228;-65
2023/03/01 10:02:22;;;;;;;7.43;5.13;;;3.90;73.70;;;;;;5079372;28;20216;-65
2023/03/01 10:04:51;;;;;;;7.63;5.53;;;4.00;73.80;;;;;;5078130;28;20266;-65
2023/03/01 10:07:29;;;;;;;12.05;6.22;;;4.00;71.70;;;;;;5079366;28;20228;-64
2023/03/01 10:09:58;;;;;;;8.70;5.85;;;4.10;70.60;;;;;;5078149;28;20240;-66
2023/03/01 10:12:28;;;;;;;6.50;5.18;;;4.10;70.20;;;;;;5078049;28;20205;-65
2023/03/01 10:15:03;;;;;;;10.30;5.80;;;4.20;69.00;;;;;;5077677;28;20189;-65
2023/03/01 10:17:36;;;;;;;6.93;5.45;;;4.20;67.20;;;;;;5077000;28;20637;-64
2023/03/01 10:20:18;;;;;;;8.90;5.53;;;4.10;66.50;;;;;;5075794;28;20236;-65
2023/03/01 10:22:50;;;;;;;6.50;5.70;;;4.20;66.80;;;;;;5076534;28;20547;-64
2023/03/01 10:25:30;;;;;;;7.07;5.50;;;4.30;66.50;;;;;;5076907;28;20256;-66
2023/03/01 10:28:02;;;;;;;6.65;5.30;;;4.40;65.70;;;;;;5077912;28;20192;-65
2023/03/01 10:30:36;;;;;;;6.80;5.25;;;4.50;65.30;;;;;;5076598;28;20224;-64
2023/03/01 10:33:18;;;;;;;6.50;4.88;;;4.60;64.70;;;;;;5076289;28;20307;-64
2023/03/01 10:35:45;;;;;;;6.15;4.60;;;4.60;64.20;;;;;;5075723;28;20204;-66
2023/03/01 10:38:14;;;;;;;10.68;4.75;;;4.60;64.10;;;;;;5075921;28;20204;-65
2023/03/01 10:40:54;;;;;;;7.82;4.38;;;4.70;63.80;;;;;;5075769;28;20227;-65
2023/03/01 10:43:22;;;;;;;7.03;4.53;;;4.80;63.50;;;;;;5075667;28;20181;-64
2023/03/01 10:45:49;;;;;;;8.25;4.53;;;4.90;62.70;;;;;;5075727;28;20201;-66
2023/03/01 10:48:19;;;;;;;5.55;4.40;;;4.90;62.10;;;;;;5075577;28;20201;-66
2023/03/01 10:50:47;;;;;;;5.50;4.10;;;4.90;61.40;;;;;;5076711;28;20266;-67
2023/03/01 10:53:26;;;;;;;6.65;3.70;;;4.90;61.10;;;;;;5075321;28;20270;-66
2023/03/01 10:56:01;;;;;;;8.32;4.85;;;5.00;60.80;;;;;;5076496;28;20192;-66
2023/03/01 10:58:29;;;;;;;6.65;4.90;;;5.10;60.30;;;;;;5075394;28;20192;-66
2023/03/01 11:00:57;;;;;;;4.85;3.88;;;5.30;60.10;;;;;;5075843;28;20205;-65
2023/03/01 11:03:26;;;;;;;5.32;4.18;;;5.50;59.70;;;;;;5075594;28;20212;-66
2023/03/01 11:06:22;;;;;;;5.80;3.85;;;5.60;58.90;;;;;;5075957;28;20295;-64
2023/03/01 11:08:50;;;;;;;5.35;4.28;;;5.60;58.10;;;;;;5075958;28;20572;-66
2023/03/01 11:11:24;;;;;;;4.32;3.35;;;5.50;57.80;;;;;;5075342;28;20213;-64
2023/03/01 11:13:59;;;;;;;6.05;4.15;;;5.50;57.90;;;;;;5077597;28;20185;-65
2023/03/01 11:16:31;;;;;;;6.88;3.67;;;5.50;57.90;;;;;;5075640;28;20207;-66
2023/03/01 11:19:00;;;;;;;3.78;3.38;;;5.60;58.00;;;;;;5075017;28;20232;-67
2023/03/01 11:21:31;;;;;;;8.40;5.25;;;5.80;57.80;;;;;;5076268;28;20205;-66
2023/03/01 11:24:00;;;;;;;6.88;4.20;;;5.90;57.40;;;;;;5074853;28;20183;-66
2023/03/01 11:26:31;;;;;;;6.32;3.53;;;6.00;57.00;;;;;;5074640;28;20197;-66
2023/03/01 11:29:03;;;;;;;6.20;4.18;;;6.10;56.60;;;;;;5074803;28;20232;-66
2023/03/01 11:31:30;;;;;;;9.05;4.97;;;6.00;56.20;;;;;;5074760;28;20208;-66
2023/03/01 11:34:02;;;;;;;5.53;3.92;;;5.90;55.70;;;;;;5074353;28;20205;-67
2023/03/01 11:36:33;;;;;;;5.18;4.05;;;5.80;55.50;;;;;;5074775;28;20193;-67
2023/03/01 11:39:09;;;;;;;4.80;3.20;;;5.80;55.60;;;;;;5074594;28;20232;-65
2023/03/01 11:41:40;;;;;;;6.13;3.83;;;5.90;55.50;;;;;;5075064;28;20189;-67
2023/03/01 11:44:15;;;;;;;5.75;3.63;;;5.90;55.30;;;;;;5074342;28;20567;-66
2023/03/01 11:47:06;;;;;;;3.88;3.45;;;6.10;55.10;;;;;;5074165;28;20185;-65
2023/03/01 11:50:04;;;;;;;7.82;3.83;;;6.10;55.20;;;;;;5070783;28;20221;-67
2023/03/01 11:52:42;;;;;;;6.25;3.15;;;6.20;54.40;;;;;;5073857;28;20225;-66
2023/03/01 11:55:22;;;;;;;5.55;4.18;;;6.30;54.30;;;;;;5074493;28;20665;-67
2023/03/01 11:58:15;;;;;;;4.22;3.40;;;6.40;53.90;;;;;;5074718;28;20537;-66
2023/03/01 12:01:04;;;;;;;7.82;3.50;;;6.40;53.10;;;;;;5074181;28;20225;-64
2023/03/01 12:03:42;;;;;;;4.47;3.30;;;6.40;53.10;;;;;;5074914;28;20176;-66
2023/03/01 12:06:32;;;;;;;4.65;3.22;;;6.30;52.90;;;;;;5074515;28;20196;-67
2023/03/01 12:09:10;;;;;;;5.63;4.63;;;6.30;52.40;;;;;;5074889;28;20221;-66
2023/03/01 12:11:59;;;;;;;6.82;3.55;;;6.30;52.00;;;;;;5075483;28;20260;-65
2023/03/01 12:14:52;;;;;;;4.43;3.15;;;6.20;51.90;;;;;;5075121;28;20189;-65
2023/03/01 12:17:44;;;;;;;3.17;2.85;;;6.20;52.10;;;;;;5074883;28;20208;-66
2023/03/01 12:20:23;;;;;;;4.95;3.42;;;6.30;51.60;;;;;;5074780;28;20221;-66
2023/03/01 12:23:16;;;;;;;7.13;5.00;;;6.30;51.20;;;;;;5074476;28;20207;-65
2023/03/01 12:25:47;;;;;;;8.50;5.05;;;6.40;51.10;;;;;;5074938;28;20197;-66
2023/03/01 12:28:42;;;;;;;4.18;3.10;;;6.50;51.00;;;;;;5073625;28;20656;-66
2023/03/01 12:31:30;;;;;;;7.90;3.80;;;6.70;51.00;;;;;;5074936;28;20190;-68
2023/03/01 12:34:08;;;;;;;4.03;3.60;;;6.70;50.50;;;;;;5077400;28;20192;-64
2023/03/01 12:37:04;;;;;;;6.82;4.28;;;6.70;50.50;;;;;;5078803;28;20281;-66
2023/03/01 12:39:44;;;;;;;6.40;3.70;;;6.80;50.50;;;;;;5077493;28;20714;-67
2023/03/01 12:42:22;;;;;;;4.57;3.60;;;6.90;50.60;;;;;;5077422;28;20177;-67
2023/03/01 12:45:03;;;;;;;4.25;3.70;;;6.90;50.10;;;;;;5077140;28;20189;-66
2023/03/01 12:47:56;;;;;;;4.93;3.75;;;6.80;49.80;;;;;;5076971;28;20190;-66
2023/03/01 12:50:25;;;;;;;4.05;3.40;;;6.70;49.30;;;;;;5076837;28;20267;-65
2023/03/01 12:52:56;;;;;;;5.57;3.55;;;6.70;49.50;;;;;;5076814;28;20222;-66
2023/03/01 12:55:30;;;;;;;4.88;3.80;;;6.60;49.40;;;;;;5077953;28;20189;-66
2023/03/01 12:58:05;;;;;;;5.50;3.40;;;6.50;49.30;;;;;;5078180;28;20254;-65
2023/03/01 13:00:38;;;;;;;5.82;4.00;;;6.50;49.30;;;;;;5077660;28;20227;-65
2023/03/01 13:03:19;;;;;;;5.03;3.78;;;6.50;49.30;;;;;;5077557;28;20186;-65
2023/03/01 13:06:00;;;;;;;8.35;3.88;;;6.60;49.30;;;;;;5077441;28;20235;-66
2023/03/01 13:08:32;;;;;;;4.85;3.65;;;6.60;49.00;;;;;;5077793;28;20194;-65